createdAt,value
2019-04-22T00:00:00.545Z,19.40
2019-04-22T00:02:29.907Z,18.83
2019-04-22T00:05:11.485Z,19.27
2019-04-22T00:08:00.419Z,23.20
2019-04-22T00:10:26.113Z,21.43
2019-04-22T00:13:00.239Z,33.07
2019-04-22T00:15:24.691Z,30.87
2019-04-22T00:18:07.470Z,33.53
2019-04-22T00:20:30.788Z,35.17
2019-04-22T00:22:59.770Z,32.87
2019-04-22T00:25:34.386Z,41.53
2019-04-22T00:28:08.512Z,34.67
2019-04-22T00:30:37.333Z,43.57
2019-04-22T00:33:26.833Z,44.73
2019-04-22T00:35:54.590Z,53.70
2019-04-22T00:38:31.800Z,40.53
2019-04-22T00:41:00.923Z,43.60
2019-04-22T00:43:33.355Z,54.07
2019-04-22T00:45:57.839Z,47.80
2019-04-22T00:51:08.758Z,48.27
2019-04-22T00:56:11.281Z,40.80
2019-04-22T00:58:41.178Z,34.00
2019-04-22T01:03:50.970Z,41.13
2019-04-22T01:06:16.082Z,30.33
2019-04-22T01:08:53.754Z,35.43
2019-04-22T01:11:22.811Z,24.83
2019-04-22T01:13:46.934Z,20.33
2019-04-22T01:16:17.048Z,24.60
2019-04-22T01:18:49.038Z,22.30
2019-04-22T01:21:25.901Z,26.07
2019-04-22T01:23:49.081Z,37.90
2019-04-22T01:26:15.963Z,28.93
2019-04-22T01:28:46.389Z,24.97
2019-04-22T01:31:08.386Z,21.77
2019-04-22T01:33:40.172Z,22.10
2019-04-22T01:36:25.924Z,21.30
2019-04-22T01:38:58.521Z,20.03
2019-04-22T01:41:32.429Z,17.97
2019-04-22T01:44:07.206Z,19.10
2019-04-22T01:46:31.585Z,21.10
2019-04-22T01:49:02.749Z,25.73
2019-04-22T01:51:45.295Z,17.37
2019-04-22T01:54:05.574Z,20.87
2019-04-22T01:56:33.026Z,14.73
2019-04-22T01:58:54.594Z,22.07
2019-04-22T02:01:42.115Z,13.87
2019-04-22T02:04:07.170Z,17.27
2019-04-22T02:06:36.007Z,17.70
2019-04-22T02:09:12.501Z,22.67
2019-04-22T02:11:41.749Z,23.30
2019-04-22T02:14:08.607Z,22.57
2019-04-22T02:16:47.482Z,22.13
2019-04-22T02:19:11.206Z,25.77
2019-04-22T02:21:38.714Z,28.07
2019-04-22T02:24:09.057Z,20.43
2019-04-22T02:29:11.039Z,29.63
2019-04-22T02:31:56.457Z,33.57
2019-04-22T02:36:43.084Z,106.90
2019-04-22T02:39:12.218Z,117.53
2019-04-22T02:41:41.506Z,118.70
2019-04-22T02:44:16.938Z,102.80
2019-04-22T02:47:04.408Z,74.67
2019-04-22T02:49:18.796Z,79.63
2019-04-22T02:51:37.072Z,64.43
2019-04-22T02:57:06.247Z,43.80
2019-04-22T02:59:20.072Z,50.23
2019-04-22T03:06:56.129Z,33.13
2019-04-22T03:12:21.993Z,45.83
2019-04-22T03:14:48.676Z,35.77
2019-04-22T03:22:16.158Z,36.33
2019-04-22T03:24:46.313Z,42.00
2019-04-22T03:27:31.870Z,33.73
2019-04-22T03:35:37.421Z,35.17
2019-04-22T03:37:49.168Z,24.57
2019-04-22T03:42:54.254Z,35.47
2019-04-22T03:48:04.390Z,29.00
2019-04-22T03:50:22.028Z,35.60
2019-04-22T03:53:05.912Z,28.97
2019-04-22T03:55:16.092Z,31.77
2019-04-22T04:02:46.035Z,26.87
2019-04-22T04:08:12.120Z,16.53
2019-04-22T04:10:30.206Z,19.20
2019-04-22T04:12:59.920Z,19.07
2019-04-22T04:15:21.168Z,22.70
2019-04-22T04:28:11.306Z,20.67
2019-04-22T04:32:52.411Z,20.47
2019-04-22T04:40:29.203Z,28.10
2019-04-22T04:42:54.214Z,25.20
2019-04-22T04:45:40.515Z,18.67
2019-04-22T04:50:20.552Z,21.67
2019-04-22T04:58:06.090Z,24.90
2019-04-22T05:07:56.424Z,18.93
2019-04-22T05:15:57.661Z,19.30
2019-04-22T05:17:57.961Z,17.70
2019-04-22T05:20:38.776Z,18.00
2019-04-22T05:22:52.792Z,14.57
2019-04-22T05:25:23.616Z,20.77
2019-04-22T05:27:55.681Z,15.87
2019-04-22T05:32:54.149Z,37.57
2019-04-22T05:35:20.766Z,18.47
2019-04-22T05:38:02.884Z,20.40
2019-04-22T05:41:00.601Z,22.07
2019-04-22T05:43:28.923Z,16.83
2019-04-22T05:46:05.702Z,16.50
2019-04-22T05:48:37.964Z,16.07
2019-04-22T05:51:07.814Z,53.40
2019-04-22T05:53:37.134Z,20.20
2019-04-22T05:56:47.609Z,18.73
2019-04-22T06:16:38.131Z,14.25
2019-04-22T06:19:07.588Z,20.90
2019-04-22T06:21:40.181Z,12.15
2019-04-22T06:24:14.057Z,13.38
2019-04-22T06:26:46.511Z,8.88
2019-04-22T06:29:13.762Z,12.47
2019-04-22T06:31:51.492Z,12.05
2019-04-22T06:34:13.431Z,13.45
2019-04-22T06:39:34.370Z,7.20
2019-04-22T06:41:56.521Z,10.32
2019-04-22T06:44:24.120Z,11.05
2019-04-22T06:46:52.555Z,7.72
2019-04-22T06:49:32.119Z,13.90
2019-04-22T06:51:55.573Z,14.25
2019-04-22T06:56:57.699Z,7.87
2019-04-22T06:59:28.004Z,10.58
2019-04-22T07:04:30.273Z,5.90
2019-04-22T07:12:02.104Z,8.43
2019-04-22T07:14:22.353Z,9.83
2019-04-22T07:17:04.725Z,8.25
2019-04-22T07:19:36.050Z,12.07
2019-04-22T07:22:03.290Z,8.80
2019-04-22T07:24:41.828Z,20.27
2019-04-22T07:27:04.665Z,6.62
2019-04-22T07:29:32.511Z,11.78
2019-04-22T07:34:33.280Z,13.43
2019-04-22T07:37:19.709Z,7.03
2019-04-22T07:39:35.532Z,12.43
2019-04-22T07:42:08.287Z,10.55
2019-04-22T07:44:38.534Z,7.30
2019-04-22T07:47:13.959Z,7.75
2019-04-22T07:49:40.636Z,7.17
2019-04-22T07:52:09.760Z,6.08
2019-04-22T07:54:44.934Z,9.90
2019-04-22T07:57:15.360Z,6.72
2019-04-22T07:59:40.365Z,9.75
2019-04-22T08:02:09.409Z,7.15
2019-04-22T08:07:12.638Z,10.93
2019-04-22T08:09:47.218Z,7.85
2019-04-22T08:12:02.484Z,7.33
2019-04-22T08:14:40.697Z,8.65
2019-04-22T08:17:43.163Z,7.17
2019-04-22T08:19:44.642Z,7.58
2019-04-22T08:22:12.571Z,6.65
2019-04-22T08:27:15.447Z,6.92
2019-04-22T08:29:53.940Z,7.12
2019-04-22T08:32:14.232Z,8.08
2019-04-22T08:34:42.152Z,10.05
2019-04-22T08:39:40.552Z,12.33
2019-04-22T08:42:27.470Z,5.75
2019-04-22T08:45:09.507Z,7.58
2019-04-22T08:47:29.166Z,9.30
2019-04-22T08:49:57.002Z,8.60
2019-04-22T08:52:21.084Z,5.80
2019-04-22T08:55:00.060Z,9.15
2019-04-22T08:57:31.864Z,9.35
2019-04-22T08:59:59.234Z,10.60
2019-04-22T09:02:26.056Z,5.42
2019-04-22T09:05:10.511Z,6.35
2019-04-22T09:07:44.760Z,13.70
2019-04-22T09:10:05.266Z,11.30
2019-04-22T09:12:46.954Z,4.65
2019-04-22T09:14:57.279Z,5.35
2019-04-22T09:17:35.156Z,6.25
2019-04-22T09:20:10.870Z,7.17
2019-04-22T09:22:36.313Z,9.25
2019-04-22T09:25:03.731Z,8.15
2019-04-22T09:27:41.314Z,7.75
2019-04-22T09:30:04.738Z,6.15
2019-04-22T09:35:03.408Z,5.95
2019-04-22T09:37:40.777Z,6.55
2019-04-22T09:40:10.651Z,5.80
2019-04-22T09:42:39.127Z,9.50
2019-04-22T09:45:05.697Z,6.75
2019-04-22T09:47:40.904Z,7.90
2019-04-22T09:50:09.806Z,12.23
2019-04-22T09:52:43.692Z,4.65
2019-04-22T09:55:12.531Z,5.05
2019-04-22T09:57:37.859Z,4.40
2019-04-22T10:00:17.036Z,11.03
2019-04-22T10:05:11.494Z,5.08
2019-04-22T10:07:43.218Z,5.55
2019-04-22T10:10:15.026Z,6.20
2019-04-22T10:12:46.714Z,6.87
2019-04-22T10:15:16.462Z,6.53
2019-04-22T10:17:47.311Z,5.17
2019-04-22T10:20:16.768Z,5.40
2019-04-22T10:22:49.966Z,4.87
2019-04-22T10:25:16.698Z,6.25
2019-04-22T10:27:47.661Z,7.00
2019-04-22T10:30:25.212Z,5.92
2019-04-22T10:32:48.153Z,4.03
2019-04-22T10:35:11.063Z,6.17
2019-04-22T10:37:38.675Z,2.70
2019-04-22T10:40:13.667Z,4.83
2019-04-22T10:42:43.581Z,4.78
2019-04-22T10:45:14.541Z,6.72
2019-04-22T10:47:43.488Z,5.33
2019-04-22T10:50:14.751Z,4.60
2019-04-22T10:52:43.538Z,3.22
2019-04-22T10:55:13.832Z,5.00
2019-04-22T10:57:44.232Z,3.95
2019-04-22T11:00:15.624Z,4.80
2019-04-22T11:02:45.712Z,3.35
2019-04-22T11:05:14.655Z,6.15
2019-04-22T11:07:51.689Z,5.42
2019-04-22T11:10:32.382Z,5.15
2019-04-22T11:12:47.137Z,4.58
2019-04-22T11:15:18.081Z,6.00
2019-04-22T11:17:49.376Z,3.60
2019-04-22T11:20:19.859Z,4.50
2019-04-22T11:22:49.029Z,4.47
2019-04-22T11:25:18.064Z,4.22
2019-04-22T11:27:47.260Z,2.67
2019-04-22T11:30:20.958Z,3.90
2019-04-22T11:32:48.597Z,3.77
2019-04-22T11:35:17.616Z,2.50
2019-04-22T11:37:48.656Z,3.72
2019-04-22T11:40:25.426Z,3.58
2019-04-22T11:42:48.286Z,4.65
2019-04-22T11:45:19.381Z,5.62
2019-04-22T11:47:48.000Z,3.85
2019-04-22T11:50:17.730Z,4.60
2019-04-22T11:52:46.939Z,5.45
2019-04-22T11:55:16.919Z,5.50
2019-04-22T11:57:47.581Z,4.58
2019-04-22T12:00:19.008Z,7.15
2019-04-22T12:02:49.305Z,4.55
2019-04-22T12:05:19.559Z,9.18
2019-04-22T12:07:48.988Z,4.40
2019-04-22T12:10:31.754Z,3.12
2019-04-22T12:12:51.488Z,7.53
2019-04-22T12:15:20.745Z,19.52
2019-04-22T12:17:50.939Z,6.30
2019-04-22T12:20:21.749Z,3.42
2019-04-22T12:22:51.438Z,5.80
2019-04-22T12:25:34.838Z,4.60
2019-04-22T12:27:52.968Z,6.28
2019-04-22T12:30:23.675Z,3.60
2019-04-22T12:32:52.745Z,6.75
2019-04-22T12:35:22.118Z,3.33
2019-04-22T12:37:55.620Z,6.87
2019-04-22T12:40:35.477Z,7.12
2019-04-22T12:42:53.508Z,3.47
2019-04-22T12:45:22.804Z,2.85
2019-04-22T12:47:52.099Z,3.85
2019-04-22T12:50:27.230Z,2.37
2019-04-22T12:52:57.669Z,3.47
2019-04-22T12:55:23.767Z,5.47
2019-04-22T12:57:56.707Z,4.90
2019-04-22T13:00:24.546Z,4.22
2019-04-22T13:02:54.759Z,5.05
2019-04-22T13:05:24.960Z,4.92
2019-04-22T13:07:53.831Z,4.17
2019-04-22T13:10:24.158Z,3.87
2019-04-22T13:12:53.070Z,3.27
2019-04-22T13:15:23.910Z,5.25
2019-04-22T13:18:03.197Z,3.42
2019-04-22T13:20:24.327Z,2.47
2019-04-22T13:22:54.691Z,5.40
2019-04-22T13:25:27.975Z,2.90
2019-04-22T13:27:55.273Z,8.53
2019-04-22T13:30:26.298Z,3.95
2019-04-22T13:32:54.851Z,4.15
2019-04-22T13:35:24.643Z,4.08
2019-04-22T13:37:54.935Z,4.28
2019-04-22T13:40:25.194Z,7.95
2019-04-22T13:42:55.556Z,2.52
2019-04-22T13:45:25.587Z,3.50
2019-04-22T13:48:14.664Z,2.37
2019-04-22T13:51:00.929Z,3.52
2019-04-22T13:53:42.798Z,3.17
2019-04-22T13:55:54.442Z,4.25
2019-04-22T13:58:08.143Z,2.72
2019-04-22T14:00:31.920Z,3.72
2019-04-22T14:03:08.983Z,2.92
2019-04-22T14:05:40.570Z,5.70
2019-04-22T14:08:10.729Z,10.88
2019-04-22T14:10:40.579Z,3.42
2019-04-22T14:13:09.982Z,4.22
2019-04-22T14:15:40.259Z,3.67
2019-04-22T14:18:10.659Z,6.47
2019-04-22T14:20:40.874Z,4.37
2019-04-22T14:23:11.744Z,2.65
2019-04-22T14:25:42.814Z,2.72
2019-04-22T14:28:16.959Z,2.80
2019-04-22T14:30:42.535Z,1.92
2019-04-22T14:33:12.111Z,2.30
2019-04-22T14:35:41.565Z,2.77
2019-04-22T14:38:12.045Z,4.85
2019-04-22T14:40:43.017Z,2.80
2019-04-22T14:43:28.979Z,4.55
2019-04-22T14:46:14.546Z,3.08
2019-04-22T14:48:42.282Z,2.92
2019-04-22T14:51:00.949Z,4.30
2019-04-22T14:53:30.798Z,2.60
2019-04-22T14:55:44.351Z,7.35
2019-04-22T14:58:13.460Z,3.58
2019-04-22T15:00:42.432Z,4.92
2019-04-22T15:03:11.334Z,3.40
2019-04-22T15:05:40.175Z,3.85
2019-04-22T15:08:09.112Z,6.50
2019-04-22T15:10:38.218Z,3.35
2019-04-22T15:13:07.388Z,5.03
2019-04-22T15:15:43.308Z,3.00
2019-04-22T15:18:10.152Z,3.75
2019-04-22T15:20:58.574Z,3.92
2019-04-22T15:23:28.564Z,3.15
2019-04-22T15:25:58.903Z,5.53
2019-04-22T15:28:29.231Z,3.15
2019-04-22T15:30:59.374Z,8.03
2019-04-22T15:33:29.972Z,4.83
2019-04-22T15:36:10.004Z,6.42
2019-04-22T15:41:56.121Z,5.45
2019-04-22T15:44:17.750Z,2.83
2019-04-22T15:46:47.048Z,3.47
2019-04-22T15:49:16.084Z,2.02
2019-04-22T15:51:45.155Z,4.22
2019-04-22T15:54:13.958Z,3.70
2019-04-22T15:56:42.471Z,4.30
2019-04-22T15:59:31.297Z,2.50
2019-04-22T16:01:42.944Z,4.90
2019-04-22T16:04:12.762Z,3.27
2019-04-22T16:06:43.125Z,3.67
2019-04-22T16:09:12.998Z,3.15
2019-04-22T16:11:42.286Z,6.95
2019-04-22T16:14:15.117Z,7.15
2019-04-22T16:16:42.932Z,2.10
2019-04-22T16:19:12.221Z,5.10
2019-04-22T16:21:49.060Z,6.33
2019-04-22T16:24:22.477Z,8.05
2019-04-22T16:26:53.944Z,4.95
2019-04-22T16:29:23.406Z,3.08
2019-04-22T16:31:53.445Z,7.03
2019-04-22T16:34:23.710Z,4.50
2019-04-22T16:36:52.807Z,2.90
2019-04-22T16:39:22.771Z,3.50
2019-04-22T16:41:52.723Z,4.70
2019-04-22T16:44:22.674Z,4.65
2019-04-22T16:46:51.940Z,8.45
2019-04-22T16:49:21.511Z,2.42
2019-04-22T16:51:50.310Z,4.50
2019-04-22T16:54:20.223Z,3.67
2019-04-22T16:56:50.073Z,7.37
2019-04-22T16:59:19.014Z,5.03
2019-04-22T17:01:50.470Z,3.00
2019-04-22T17:04:28.272Z,4.08
2019-04-22T17:06:57.658Z,4.67
2019-04-22T17:09:27.761Z,4.12
2019-04-22T17:11:56.350Z,6.60
2019-04-22T17:14:32.749Z,3.65
2019-04-22T17:16:56.741Z,7.05
2019-04-22T17:19:26.877Z,4.45
2019-04-22T17:21:55.870Z,9.05
2019-04-22T17:24:25.733Z,2.60
2019-04-22T17:26:54.872Z,3.67
2019-04-22T17:29:23.812Z,9.28
2019-04-22T17:32:00.374Z,3.55
2019-04-22T17:34:23.448Z,7.03
2019-04-22T17:36:53.217Z,3.50
2019-04-22T17:39:31.569Z,3.42
2019-04-22T17:42:10.930Z,4.28
2019-04-22T17:44:54.296Z,5.42
2019-04-22T17:47:22.066Z,4.35
2019-04-22T17:50:13.265Z,4.70
2019-04-22T17:52:36.598Z,4.75
2019-04-22T17:55:05.083Z,6.30
2019-04-22T17:57:38.391Z,4.33
2019-04-22T18:00:11.879Z,7.03
2019-04-22T18:02:32.232Z,6.25
2019-04-22T18:04:57.406Z,3.98
2019-04-22T18:07:43.009Z,7.40
2019-04-22T18:10:28.838Z,3.92
2019-04-22T18:12:57.386Z,4.97
2019-04-22T18:15:14.670Z,6.25
2019-04-22T18:17:51.649Z,7.47
2019-04-22T18:20:12.628Z,5.33
2019-04-22T18:22:39.691Z,7.53
2019-04-22T18:25:07.723Z,6.50
2019-04-22T18:28:09.357Z,6.85
2019-04-22T18:30:11.390Z,6.53
2019-04-22T18:32:46.735Z,5.95
2019-04-22T18:35:15.528Z,5.75
2019-04-22T18:37:50.618Z,8.63
2019-04-22T18:40:18.631Z,4.93
2019-04-22T18:42:52.432Z,4.00
2019-04-22T18:45:37.325Z,5.90
2019-04-22T18:47:45.436Z,4.12
2019-04-22T18:50:30.706Z,4.37
2019-04-22T18:53:10.950Z,3.98
2019-04-22T18:55:57.114Z,3.55
2019-04-22T18:58:24.721Z,5.42
2019-04-22T19:00:43.981Z,5.12
2019-04-22T19:03:19.878Z,4.67
2019-04-22T19:06:03.599Z,6.58
2019-04-22T19:08:34.558Z,6.00
2019-04-22T19:11:08.255Z,8.97
2019-04-22T19:13:58.886Z,5.83
2019-04-22T19:18:39.223Z,6.17
2019-04-22T19:21:19.714Z,10.97
2019-04-22T19:23:40.776Z,4.78
2019-04-22T19:26:15.319Z,4.70
2019-04-22T19:28:45.824Z,7.13
2019-04-22T19:33:52.255Z,4.47
2019-04-22T19:36:19.203Z,4.23
2019-04-22T19:38:34.058Z,6.50
2019-04-22T19:41:19.991Z,6.33
2019-04-22T19:43:47.392Z,5.70
2019-04-22T19:46:17.027Z,13.03
2019-04-22T19:49:07.043Z,6.63
2019-04-22T19:51:20.598Z,4.00
2019-04-22T19:53:46.986Z,5.60
2019-04-22T19:56:11.763Z,4.90
2019-04-22T19:58:42.649Z,5.53
2019-04-22T20:01:22.181Z,6.63
2019-04-22T20:04:15.128Z,3.67
2019-04-22T20:06:41.294Z,5.33
2019-04-22T20:09:17.170Z,5.93
2019-04-22T20:11:48.068Z,8.13
2019-04-22T20:14:12.680Z,8.13
2019-04-22T20:16:38.576Z,6.37
2019-04-22T20:19:19.337Z,7.57
2019-04-22T20:21:49.327Z,3.10
2019-04-22T20:24:04.295Z,7.10
2019-04-22T20:26:50.809Z,5.67
2019-04-22T20:29:21.001Z,5.43
2019-04-22T20:31:49.552Z,6.43
2019-04-22T20:34:21.279Z,9.53
2019-04-22T20:37:01.689Z,3.67
2019-04-22T20:39:11.237Z,10.83
2019-04-22T20:41:43.042Z,5.67
2019-04-22T20:44:22.483Z,11.63
2019-04-22T20:46:48.868Z,7.60
2019-04-22T20:49:20.088Z,5.10
2019-04-22T20:52:00.315Z,6.87
2019-04-22T20:54:19.304Z,5.57
2019-04-22T20:56:50.933Z,4.73
2019-04-22T20:59:19.344Z,4.40
2019-04-22T21:01:49.751Z,6.23
2019-04-22T21:04:11.524Z,3.97
2019-04-22T21:06:51.456Z,9.90
2019-04-22T21:09:32.267Z,3.30
2019-04-22T21:11:54.938Z,4.73
2019-04-22T21:14:24.627Z,4.97
2019-04-22T21:17:00.405Z,9.83
2019-04-22T21:19:38.211Z,6.17
2019-04-22T21:22:03.682Z,6.63
2019-04-22T21:24:29.089Z,4.10
2019-04-22T21:27:08.954Z,7.57
2019-04-22T21:29:32.140Z,8.43
2019-04-22T21:32:03.131Z,7.10
2019-04-22T21:34:32.229Z,4.93
2019-04-22T21:37:14.156Z,7.90
2019-04-22T21:39:33.291Z,8.93
2019-04-22T21:42:09.408Z,4.63
2019-04-22T21:44:34.003Z,8.70
2019-04-22T21:47:16.058Z,7.33
2019-04-22T21:49:45.880Z,7.83
2019-04-22T21:52:08.043Z,10.20
2019-04-22T21:54:59.499Z,7.13
2019-04-22T21:57:22.644Z,5.07
2019-04-22T21:59:43.200Z,7.23
2019-04-22T22:02:17.539Z,6.33
2019-04-22T22:04:44.586Z,11.37
2019-04-22T22:07:05.290Z,5.87
2019-04-22T22:09:47.564Z,7.10
2019-04-22T22:12:12.694Z,6.37
2019-04-22T22:14:51.557Z,6.57
2019-04-22T22:17:17.311Z,6.67
2019-04-22T22:19:51.925Z,5.03
2019-04-22T22:22:40.236Z,8.80
2019-04-22T22:24:52.656Z,7.90
2019-04-22T22:27:20.485Z,6.23
2019-04-22T22:29:58.534Z,7.23
2019-04-22T22:32:25.689Z,4.70
2019-04-22T22:34:53.471Z,8.23
2019-04-22T22:37:11.726Z,7.37
2019-04-22T22:39:42.809Z,10.27
2019-04-22T22:42:01.886Z,6.67
2019-04-22T22:44:36.895Z,5.73
2019-04-22T22:47:18.219Z,10.23
2019-04-22T22:49:53.053Z,6.10
2019-04-22T22:52:51.780Z,7.40
2019-04-22T22:54:54.230Z,7.33
2019-04-22T22:59:57.482Z,12.87
2019-04-22T23:02:34.146Z,6.27
2019-04-22T23:04:57.915Z,12.33
2019-04-22T23:07:28.723Z,8.50
2019-04-22T23:10:01.563Z,7.07
2019-04-22T23:12:34.762Z,9.77
2019-04-22T23:15:03.823Z,5.67
2019-04-22T23:17:16.254Z,5.00
2019-04-22T23:19:46.021Z,7.97
2019-04-22T23:22:17.890Z,9.43
2019-04-22T23:25:14.893Z,8.80
2019-04-22T23:27:41.867Z,9.43
2019-04-22T23:30:15.905Z,9.00
2019-04-22T23:32:51.729Z,8.33
2019-04-22T23:35:24.187Z,6.47
2019-04-22T23:38:01.416Z,8.07
2019-04-22T23:40:37.173Z,5.03
2019-04-22T23:43:05.479Z,11.23
2019-04-22T23:45:34.856Z,6.77
2019-04-22T23:47:49.509Z,6.13
2019-04-22T23:50:35.817Z,5.13
2019-04-22T23:53:02.141Z,9.43
2019-04-22T23:55:36.984Z,6.83
2019-04-22T23:58:03.611Z,6.63
